createdAt,value
2022-10-07T00:02:17.098Z,73.30
2022-10-07T00:04:46.441Z,73.20
2022-10-07T00:07:15.242Z,73.20
2022-10-07T00:09:43.443Z,73.20
2022-10-07T00:12:11.639Z,73.30
2022-10-07T00:14:42.664Z,73.10
2022-10-07T00:17:10.857Z,73.00
2022-10-07T00:19:39.027Z,73.00
2022-10-07T00:22:07.183Z,73.00
2022-10-07T00:24:35.359Z,73.00
2022-10-07T00:27:03.567Z,73.00
2022-10-07T00:29:31.727Z,73.00
2022-10-07T00:32:01.260Z,72.90
2022-10-07T00:34:29.440Z,72.90
2022-10-07T00:36:57.534Z,72.90
2022-10-07T00:39:25.624Z,72.90
2022-10-07T00:41:53.919Z,73.00
2022-10-07T00:44:43.218Z,72.80
2022-10-07T00:47:30.815Z,72.80
2022-10-07T00:50:01.971Z,72.80
2022-10-07T00:52:31.995Z,72.80
2022-10-07T00:55:00.889Z,72.70
2022-10-07T00:57:29.269Z,72.80
2022-10-07T00:59:57.423Z,72.80
2022-10-07T01:02:25.725Z,72.70
2022-10-07T01:04:58.944Z,72.70
2022-10-07T01:07:27.080Z,72.60
2022-10-07T01:09:55.114Z,72.90
2022-10-07T01:12:27.063Z,72.70
2022-10-07T01:14:58.776Z,72.70
2022-10-07T01:17:28.784Z,72.70
2022-10-07T01:20:24.327Z,72.70
2022-10-07T01:23:08.479Z,72.60
2022-10-07T01:25:45.406Z,72.60
2022-10-07T01:28:16.267Z,72.50
2022-10-07T01:30:47.663Z,72.50
2022-10-07T01:33:18.184Z,72.60
2022-10-07T01:35:46.915Z,72.40
2022-10-07T01:38:16.325Z,72.60
2022-10-07T01:40:55.835Z,72.60
2022-10-07T01:43:25.288Z,72.60
2022-10-07T01:45:53.806Z,72.40
2022-10-07T01:48:21.874Z,72.50
2022-10-07T01:50:49.915Z,72.40
2022-10-07T01:53:27.912Z,72.30
2022-10-07T01:56:17.505Z,72.40
2022-10-07T01:59:14.532Z,72.40
2022-10-07T02:01:44.768Z,72.30
2022-10-07T02:04:22.347Z,72.30
2022-10-07T02:06:52.492Z,72.30
2022-10-07T02:09:24.804Z,72.30
2022-10-07T02:11:56.110Z,72.20
2022-10-07T02:14:26.661Z,72.20
2022-10-07T02:17:05.063Z,72.20
2022-10-07T02:19:33.625Z,72.30
2022-10-07T02:22:02.776Z,72.20
2022-10-07T02:24:31.842Z,72.10
2022-10-07T02:27:00.477Z,72.10
2022-10-07T02:29:31.887Z,72.20
2022-10-07T02:32:00.233Z,72.00
2022-10-07T02:34:28.601Z,72.00
2022-10-07T02:36:58.921Z,72.00
2022-10-07T02:39:27.058Z,72.10
2022-10-07T02:41:58.632Z,72.10
2022-10-07T02:44:29.100Z,72.10
2022-10-07T02:47:02.702Z,71.90
2022-10-07T02:49:30.976Z,72.10
2022-10-07T02:52:00.393Z,72.10
2022-10-07T02:54:31.139Z,72.00
2022-10-07T02:56:59.402Z,72.10
2022-10-07T02:59:27.579Z,72.00
2022-10-07T03:01:56.372Z,71.90
2022-10-07T03:04:25.870Z,71.90
2022-10-07T03:06:58.938Z,72.00
2022-10-07T03:09:27.296Z,71.90
2022-10-07T03:11:55.526Z,71.90
2022-10-07T03:14:24.788Z,72.00
2022-10-07T03:16:53.004Z,71.90
2022-10-07T03:19:21.031Z,71.90
2022-10-07T03:21:50.567Z,71.90
2022-10-07T03:24:18.599Z,71.90
2022-10-07T03:26:46.684Z,71.90
2022-10-07T03:29:15.145Z,71.80
2022-10-07T03:31:43.435Z,72.10
2022-10-07T03:34:11.694Z,71.80
2022-10-07T03:36:39.731Z,71.70
2022-10-07T03:39:09.164Z,71.80
2022-10-07T03:41:37.304Z,71.70
2022-10-07T03:44:05.643Z,71.80
2022-10-07T03:46:33.778Z,71.70
2022-10-07T03:49:01.928Z,71.70
2022-10-07T03:51:29.985Z,71.70
2022-10-07T03:53:58.668Z,71.60
2022-10-07T03:56:28.175Z,71.80
2022-10-07T03:58:56.615Z,71.60
2022-10-07T04:01:27.092Z,71.50
2022-10-07T04:03:55.862Z,71.70
2022-10-07T04:06:23.977Z,71.60
2022-10-07T04:08:53.069Z,71.50
2022-10-07T04:11:21.142Z,71.70
2022-10-07T04:13:50.581Z,71.70
2022-10-07T04:16:18.790Z,71.50
2022-10-07T04:18:47.409Z,71.50
2022-10-07T04:21:15.558Z,71.60
2022-10-07T04:23:43.691Z,71.60
2022-10-07T04:26:12.679Z,71.50
2022-10-07T04:28:40.833Z,71.50
2022-10-07T04:31:11.103Z,71.50
2022-10-07T04:33:44.141Z,71.50
2022-10-07T04:36:12.961Z,71.40
2022-10-07T04:38:42.653Z,71.40
2022-10-07T04:41:10.796Z,71.40
2022-10-07T04:43:38.894Z,71.50
2022-10-07T04:46:07.963Z,71.70
2022-10-07T04:48:37.414Z,71.50
2022-10-07T04:51:05.835Z,71.30
2022-10-07T04:53:33.917Z,71.30
2022-10-07T04:56:02.116Z,71.30
2022-10-07T04:58:30.228Z,71.40
2022-10-07T05:00:59.325Z,71.30
2022-10-07T05:03:28.455Z,71.20
2022-10-07T05:06:05.572Z,71.20
2022-10-07T05:08:34.223Z,71.50
2022-10-07T05:11:02.767Z,71.30
2022-10-07T05:13:30.852Z,71.20
2022-10-07T05:15:59.903Z,71.60
2022-10-07T05:18:28.537Z,71.20
2022-10-07T05:20:58.035Z,71.20
2022-10-07T05:23:28.957Z,71.10
2022-10-07T05:26:00.466Z,71.20
2022-10-07T05:28:28.610Z,71.20
2022-10-07T05:31:07.005Z,71.20
2022-10-07T05:33:35.326Z,71.20
2022-10-07T05:36:04.924Z,71.10
2022-10-07T05:38:33.634Z,71.20
2022-10-07T05:41:02.386Z,71.20
2022-10-07T05:43:38.080Z,71.10
2022-10-07T05:46:07.042Z,71.00
2022-10-07T05:48:39.378Z,71.30
2022-10-07T05:51:09.377Z,71.10
2022-10-07T05:53:41.285Z,71.00
2022-10-07T05:56:09.914Z,71.00
2022-10-07T05:58:38.768Z,71.00
2022-10-07T06:01:12.919Z,71.20
2022-10-07T06:03:42.157Z,71.00
2022-10-07T06:06:11.615Z,71.10
2022-10-07T06:08:39.679Z,71.10
2022-10-07T06:11:30.738Z,71.10
2022-10-07T06:13:58.840Z,70.90
2022-10-07T06:16:26.928Z,71.20
2022-10-07T06:18:55.456Z,70.90
2022-10-07T06:21:28.196Z,71.00
2022-10-07T06:23:56.845Z,70.90
2022-10-07T06:26:24.918Z,70.90
2022-10-07T06:28:53.032Z,70.80
2022-10-07T06:31:25.075Z,70.90
2022-10-07T06:33:53.185Z,70.90
2022-10-07T06:36:21.414Z,71.00
2022-10-07T06:38:51.582Z,70.90
2022-10-07T06:41:19.662Z,70.80
2022-10-07T06:43:47.702Z,70.80
2022-10-07T06:46:16.675Z,71.00
2022-10-07T06:48:46.631Z,70.90
2022-10-07T06:51:15.462Z,70.80
2022-10-07T06:53:43.994Z,70.90
2022-10-07T06:56:14.055Z,70.90
2022-10-07T06:58:43.188Z,70.80
2022-10-07T07:01:11.587Z,70.80
2022-10-07T07:03:40.046Z,70.80
2022-10-07T07:06:09.068Z,70.80
2022-10-07T07:08:37.270Z,70.70
2022-10-07T07:11:06.268Z,71.00
2022-10-07T07:13:36.201Z,71.00
2022-10-07T07:16:04.225Z,70.80
2022-10-07T07:18:49.879Z,70.90
2022-10-07T07:21:17.927Z,71.00
2022-10-07T07:23:46.003Z,70.90
2022-10-07T07:26:14.034Z,70.90
2022-10-07T07:28:43.498Z,71.00
2022-10-07T07:31:13.531Z,71.10
2022-10-07T07:33:41.670Z,71.10
2022-10-07T07:36:15.478Z,71.00
2022-10-07T07:38:43.703Z,71.00
2022-10-07T07:41:11.940Z,71.00
2022-10-07T07:43:40.013Z,71.30
2022-10-07T07:46:11.439Z,71.20
2022-10-07T07:48:39.547Z,71.30
2022-10-07T07:51:07.957Z,71.20
2022-10-07T07:53:48.991Z,71.30
2022-10-07T07:56:17.107Z,71.30
2022-10-07T07:58:45.115Z,71.30
2022-10-07T08:01:15.675Z,71.20
2022-10-07T08:03:44.481Z,71.30
2022-10-07T08:06:12.961Z,71.20
2022-10-07T08:08:43.161Z,71.40
2022-10-07T08:11:15.097Z,71.50
2022-10-07T08:13:43.210Z,71.20
2022-10-07T08:16:13.366Z,71.20
2022-10-07T08:18:42.919Z,71.30
2022-10-07T08:21:11.532Z,71.30
2022-10-07T08:23:39.980Z,71.30
2022-10-07T08:26:08.574Z,71.50
2022-10-07T08:28:37.079Z,71.50
2022-10-07T08:31:05.756Z,71.40
2022-10-07T08:33:35.040Z,71.40
2022-10-07T08:36:05.702Z,71.50
2022-10-07T08:38:34.363Z,71.50
2022-10-07T08:41:11.128Z,71.50
2022-10-07T08:43:49.305Z,71.60
2022-10-07T08:46:19.543Z,71.50
2022-10-07T08:48:52.439Z,71.60
2022-10-07T08:51:22.514Z,71.60
2022-10-07T08:53:50.820Z,71.60
2022-10-07T08:56:20.027Z,71.60
2022-10-07T08:58:57.046Z,71.70
2022-10-07T09:01:32.390Z,71.70
2022-10-07T09:04:23.629Z,71.70
2022-10-07T09:06:55.403Z,71.70
2022-10-07T09:09:25.066Z,71.70
2022-10-07T09:11:53.114Z,71.80
2022-10-07T09:14:26.069Z,71.90
2022-10-07T09:16:55.133Z,71.90
2022-10-07T09:19:27.337Z,71.80
2022-10-07T09:21:57.981Z,71.80
2022-10-07T09:24:28.205Z,71.90
2022-10-07T09:26:57.970Z,71.90
2022-10-07T09:29:28.346Z,71.90
2022-10-07T09:31:57.011Z,72.10
2022-10-07T09:34:25.671Z,72.00
2022-10-07T09:37:16.184Z,72.10
2022-10-07T09:39:45.183Z,72.10
2022-10-07T09:42:22.232Z,72.00
2022-10-07T09:44:52.898Z,72.10
2022-10-07T09:47:22.241Z,72.10
2022-10-07T09:49:51.645Z,72.10
2022-10-07T09:52:23.315Z,72.10
2022-10-07T09:54:52.904Z,72.20
2022-10-07T09:57:32.540Z,72.20
2022-10-07T10:00:23.518Z,72.20
2022-10-07T10:02:53.133Z,72.30
2022-10-07T10:05:26.547Z,72.30
2022-10-07T10:07:57.682Z,72.30
2022-10-07T10:10:27.117Z,72.40
2022-10-07T10:12:55.988Z,72.40
2022-10-07T10:15:39.227Z,72.40
2022-10-07T10:18:32.434Z,72.40
2022-10-07T10:21:22.300Z,72.50
2022-10-07T10:23:52.651Z,72.50
2022-10-07T10:26:44.806Z,72.50
2022-10-07T10:29:24.057Z,72.50
2022-10-07T10:32:08.468Z,72.50
2022-10-07T10:34:41.181Z,72.50
2022-10-07T10:37:14.680Z,72.60
2022-10-07T10:39:58.148Z,72.60
2022-10-07T10:42:31.795Z,72.60
2022-10-07T10:45:08.186Z,72.70
2022-10-07T10:50:29.853Z,72.70
2022-10-07T10:53:02.913Z,72.70
2022-10-07T10:55:40.489Z,72.80
2022-10-07T10:58:16.003Z,72.80
2022-10-07T11:00:49.361Z,72.70
2022-10-07T11:03:25.389Z,72.80
2022-10-07T11:05:53.780Z,72.80
2022-10-07T11:08:26.476Z,72.80
2022-10-07T11:10:57.589Z,72.80
2022-10-07T11:13:29.770Z,72.90
2022-10-07T11:16:00.580Z,72.90
2022-10-07T11:18:31.500Z,72.90
2022-10-07T11:21:02.483Z,72.90
2022-10-07T11:23:36.441Z,72.90
2022-10-07T11:26:08.281Z,72.90
2022-10-07T11:28:37.029Z,72.90
2022-10-07T11:31:10.106Z,73.00
2022-10-07T11:33:46.474Z,73.00
2022-10-07T11:36:15.801Z,73.00
2022-10-07T11:38:57.717Z,73.00
2022-10-07T11:41:29.381Z,73.10
2022-10-07T11:43:58.659Z,73.10
2022-10-07T11:46:28.557Z,73.10
2022-10-07T11:49:00.946Z,73.10
2022-10-07T11:51:30.546Z,73.10
2022-10-07T11:54:03.042Z,73.10
2022-10-07T11:56:40.460Z,73.20
2022-10-07T11:59:08.666Z,73.20
2022-10-07T12:01:53.480Z,73.20
2022-10-07T12:04:44.423Z,73.20
2022-10-07T12:07:57.359Z,73.20
2022-10-07T12:10:29.919Z,73.20
2022-10-07T12:13:15.243Z,73.30
2022-10-07T12:15:44.078Z,73.30
2022-10-07T12:18:39.051Z,73.30
2022-10-07T12:21:21.892Z,73.30
2022-10-07T12:23:50.002Z,73.30
2022-10-07T12:26:54.632Z,73.30
2022-10-07T12:29:32.036Z,73.30
2022-10-07T12:32:00.213Z,73.40
2022-10-07T12:34:44.064Z,73.40
2022-10-07T12:37:44.054Z,73.40
2022-10-07T12:40:37.936Z,73.40
2022-10-07T12:43:10.462Z,73.40
2022-10-07T12:45:43.504Z,73.40
2022-10-07T12:48:14.665Z,73.40
2022-10-07T12:50:42.743Z,73.50
2022-10-07T12:53:11.122Z,73.50
2022-10-07T12:55:40.516Z,73.50
2022-10-07T12:58:32.701Z,73.50
2022-10-07T13:01:11.934Z,73.50
2022-10-07T13:03:56.683Z,73.50
2022-10-07T13:06:58.046Z,73.50
2022-10-07T13:09:58.030Z,73.60
2022-10-07T13:12:30.474Z,73.60
2022-10-07T13:15:03.808Z,73.70
2022-10-07T13:17:42.444Z,73.70
2022-10-07T13:20:32.871Z,73.70
2022-10-07T13:23:06.123Z,73.70
2022-10-07T13:25:34.185Z,73.70
2022-10-07T13:28:02.403Z,73.70
2022-10-07T13:30:38.969Z,73.70
2022-10-07T13:33:17.204Z,73.70
2022-10-07T13:35:48.157Z,73.70
2022-10-07T13:38:26.073Z,73.70
2022-10-07T13:40:55.463Z,73.80
2022-10-07T13:43:23.678Z,73.80
2022-10-07T13:45:51.888Z,73.80
2022-10-07T13:48:23.268Z,73.80
2022-10-07T13:50:51.408Z,73.80
2022-10-07T13:53:22.637Z,73.80
2022-10-07T13:55:52.034Z,73.80
2022-10-07T13:58:20.541Z,73.80
2022-10-07T14:00:48.986Z,73.90
2022-10-07T14:03:17.798Z,73.90
2022-10-07T14:05:51.991Z,73.90
2022-10-07T14:08:21.289Z,73.90
2022-10-07T14:10:54.567Z,73.90
2022-10-07T14:13:22.607Z,73.90
2022-10-07T14:15:52.871Z,74.00
2022-10-07T14:18:20.958Z,73.90
2022-10-07T14:20:52.140Z,73.90
2022-10-07T14:23:22.734Z,74.00
2022-10-07T14:25:55.732Z,74.00
2022-10-07T14:28:29.618Z,74.00
2022-10-07T14:31:37.977Z,74.00
2022-10-07T14:34:32.103Z,74.00
2022-10-07T14:37:05.383Z,74.00
2022-10-07T14:39:35.242Z,74.00
2022-10-07T14:42:03.668Z,74.10
2022-10-07T14:44:31.737Z,74.10
2022-10-07T14:47:06.928Z,74.10
2022-10-07T14:49:36.350Z,74.10
2022-10-07T14:52:13.459Z,74.10
2022-10-07T14:54:44.154Z,74.10
2022-10-07T14:57:19.096Z,74.10
2022-10-07T14:59:49.053Z,74.10
2022-10-07T15:02:17.477Z,74.10
2022-10-07T15:04:45.811Z,74.10
2022-10-07T15:07:15.503Z,74.10
2022-10-07T15:09:43.806Z,74.10
2022-10-07T15:12:12.213Z,74.10
2022-10-07T15:14:43.424Z,74.10
2022-10-07T15:17:12.185Z,74.20
2022-10-07T15:19:40.366Z,74.20
2022-10-07T15:22:08.477Z,74.20
2022-10-07T15:24:38.731Z,74.20
2022-10-07T15:27:09.822Z,74.20
2022-10-07T15:29:37.926Z,74.20
2022-10-07T15:32:09.339Z,74.20
2022-10-07T15:34:37.390Z,74.30
2022-10-07T15:37:06.010Z,74.40
2022-10-07T15:39:39.435Z,74.30
2022-10-07T15:42:09.516Z,74.30
2022-10-07T15:44:37.633Z,74.30
2022-10-07T15:47:06.305Z,74.40
2022-10-07T15:49:36.139Z,74.40
2022-10-07T15:52:04.266Z,74.40
2022-10-07T15:54:32.607Z,74.40
2022-10-07T15:57:00.807Z,74.40
2022-10-07T15:59:30.215Z,74.40
2022-10-07T16:01:58.387Z,74.40
2022-10-07T16:04:26.771Z,74.50
2022-10-07T16:06:54.852Z,74.50
2022-10-07T16:09:23.324Z,74.50
2022-10-07T16:11:51.551Z,74.50
2022-10-07T16:14:22.649Z,74.50
2022-10-07T16:16:52.082Z,74.50
2022-10-07T16:19:20.255Z,74.50
2022-10-07T16:21:48.308Z,74.50
2022-10-07T16:24:17.078Z,74.60
2022-10-07T16:26:45.265Z,74.60
2022-10-07T16:29:32.551Z,74.60
2022-10-07T16:32:02.196Z,74.60
2022-10-07T16:34:30.286Z,74.60
2022-10-07T16:36:58.626Z,74.60
2022-10-07T16:39:26.757Z,74.60
2022-10-07T16:41:57.176Z,74.60
2022-10-07T16:44:25.774Z,74.60
2022-10-07T16:46:56.820Z,74.60
2022-10-07T16:49:27.644Z,74.60
2022-10-07T16:51:56.448Z,74.60
2022-10-07T16:54:29.876Z,74.60
2022-10-07T16:56:58.667Z,74.70
2022-10-07T16:59:32.598Z,74.70
2022-10-07T17:02:03.122Z,74.70
2022-10-07T17:04:32.630Z,74.70
2022-10-07T17:07:00.728Z,74.70
2022-10-07T17:09:28.866Z,74.70
2022-10-07T17:11:57.368Z,74.60
2022-10-07T17:14:26.456Z,74.70
2022-10-07T17:16:56.514Z,74.60
2022-10-07T17:19:25.848Z,74.70
2022-10-07T17:21:55.778Z,74.70
2022-10-07T17:24:24.046Z,74.70
2022-10-07T17:26:53.054Z,74.70
2022-10-07T17:29:22.639Z,74.70
2022-10-07T17:31:51.373Z,74.70
2022-10-07T17:34:20.616Z,74.70
2022-10-07T17:36:48.811Z,74.70
2022-10-07T17:39:19.170Z,74.70
2022-10-07T17:41:47.570Z,74.70
2022-10-07T17:44:15.685Z,74.70
2022-10-07T17:46:43.967Z,74.80
2022-10-07T17:49:13.499Z,74.80
2022-10-07T17:51:42.666Z,74.80
2022-10-07T17:54:11.980Z,74.80
2022-10-07T17:56:41.959Z,74.80
2022-10-07T17:59:10.055Z,74.80
2022-10-07T18:01:38.128Z,74.80
2022-10-07T18:04:07.533Z,74.80
2022-10-07T18:06:39.452Z,74.80
2022-10-07T18:09:07.876Z,74.80
2022-10-07T18:11:53.470Z,74.80
2022-10-07T18:14:40.760Z,74.80
2022-10-07T18:17:09.026Z,74.80
2022-10-07T18:19:37.369Z,74.80
2022-10-07T18:22:05.560Z,74.80
2022-10-07T18:24:33.637Z,74.80
2022-10-07T18:27:02.154Z,74.80
2022-10-07T18:29:32.804Z,74.90
2022-10-07T18:32:01.093Z,74.90
2022-10-07T18:34:29.199Z,74.90
2022-10-07T18:36:57.516Z,74.90
2022-10-07T18:39:27.434Z,74.90
2022-10-07T18:41:58.994Z,74.90
2022-10-07T18:44:27.213Z,74.90
2022-10-07T18:46:56.689Z,74.80
2022-10-07T18:49:24.762Z,74.80
2022-10-07T18:51:52.866Z,74.90
2022-10-07T18:54:21.189Z,74.90
2022-10-07T18:56:49.350Z,74.90
2022-10-07T18:59:17.569Z,74.90
2022-10-07T19:01:50.132Z,74.90
2022-10-07T19:04:20.290Z,74.90
2022-10-07T19:06:48.434Z,74.80
2022-10-07T19:09:17.577Z,74.80
2022-10-07T19:11:45.722Z,74.90
2022-10-07T19:14:12.811Z,74.80
2022-10-07T19:16:41.913Z,74.80
2022-10-07T19:19:14.917Z,74.80
2022-10-07T19:21:44.717Z,74.80
2022-10-07T19:24:13.160Z,74.80
2022-10-07T19:26:43.405Z,74.80
2022-10-07T19:29:12.146Z,74.80
2022-10-07T19:31:41.471Z,74.80
2022-10-07T19:34:10.633Z,74.80
2022-10-07T19:36:40.240Z,74.80
2022-10-07T19:39:10.095Z,74.80
2022-10-07T19:41:38.224Z,74.70
2022-10-07T19:44:06.506Z,74.70
2022-10-07T19:46:34.732Z,74.80
2022-10-07T19:49:09.327Z,74.70
2022-10-07T19:51:49.957Z,74.70
2022-10-07T19:54:19.398Z,74.70
2022-10-07T19:56:47.431Z,74.70
2022-10-07T19:59:15.583Z,74.70
2022-10-07T20:01:44.500Z,74.80
2022-10-07T20:04:14.210Z,74.70
2022-10-07T20:06:42.344Z,74.70
2022-10-07T20:09:12.180Z,74.70
2022-10-07T20:11:41.672Z,74.70
2022-10-07T20:14:10.157Z,74.70
2022-10-07T20:16:39.194Z,74.70
2022-10-07T20:19:08.102Z,74.70
2022-10-07T20:21:37.095Z,74.70
2022-10-07T20:24:06.583Z,74.70
2022-10-07T20:26:35.877Z,74.70
2022-10-07T20:29:06.402Z,74.60
2022-10-07T20:31:35.374Z,74.60
2022-10-07T20:34:03.639Z,74.70
2022-10-07T20:36:32.343Z,74.60
2022-10-07T20:39:18.618Z,74.60
2022-10-07T20:42:04.184Z,74.60
2022-10-07T20:44:33.634Z,74.60
2022-10-07T20:47:01.711Z,74.60
2022-10-07T20:49:30.145Z,74.60
2022-10-07T20:51:59.465Z,74.60
2022-10-07T20:54:27.688Z,74.60
2022-10-07T20:56:57.810Z,74.60
2022-10-07T20:59:26.287Z,74.60
2022-10-07T21:01:55.841Z,74.60
2022-10-07T21:04:25.197Z,74.60
2022-10-07T21:06:53.461Z,74.50
2022-10-07T21:09:21.665Z,74.50
2022-10-07T21:11:49.685Z,74.60
2022-10-07T21:14:18.215Z,74.60
2022-10-07T21:16:46.513Z,74.50
2022-10-07T21:21:59.002Z,74.50
2022-10-07T21:24:27.045Z,74.50
2022-10-07T21:26:55.154Z,74.50
2022-10-07T21:29:23.308Z,74.50
2022-10-07T21:31:53.213Z,74.50
2022-10-07T21:34:22.716Z,74.50
2022-10-07T21:36:53.878Z,74.40
2022-10-07T21:39:22.322Z,74.40
2022-10-07T21:41:50.397Z,74.50
2022-10-07T21:44:18.581Z,74.50
2022-10-07T21:46:46.755Z,74.40
2022-10-07T21:49:14.842Z,74.40
2022-10-07T21:51:47.350Z,74.40
2022-10-07T21:54:15.576Z,74.40
2022-10-07T21:56:46.203Z,74.40
2022-10-07T21:59:14.588Z,74.40
2022-10-07T22:01:43.191Z,74.30
2022-10-07T22:04:15.829Z,74.40
2022-10-07T22:07:01.263Z,74.30
2022-10-07T22:09:38.255Z,74.30
2022-10-07T22:12:06.597Z,74.30
2022-10-07T22:14:34.695Z,74.40
2022-10-07T22:17:03.858Z,74.30
2022-10-07T22:19:31.922Z,74.40
2022-10-07T22:21:59.989Z,74.20
2022-10-07T22:24:28.045Z,74.30
2022-10-07T22:26:57.475Z,74.20
2022-10-07T22:29:25.674Z,74.20
2022-10-07T22:31:53.813Z,74.20
2022-10-07T22:34:41.531Z,74.20
2022-10-07T22:37:09.654Z,74.20
2022-10-07T22:39:37.781Z,74.20
2022-10-07T22:42:13.237Z,74.30
2022-10-07T22:44:41.339Z,74.20
2022-10-07T22:47:09.457Z,74.20
2022-10-07T22:49:37.513Z,74.20
2022-10-07T22:52:05.583Z,74.20
2022-10-07T22:54:33.639Z,74.10
2022-10-07T22:57:01.706Z,74.20
2022-10-07T22:59:31.131Z,74.20
2022-10-07T23:01:59.163Z,74.10
2022-10-07T23:04:27.200Z,74.20
2022-10-07T23:06:55.356Z,74.10
2022-10-07T23:09:23.473Z,74.10
2022-10-07T23:11:51.631Z,74.10
2022-10-07T23:14:20.119Z,74.10
2022-10-07T23:16:49.586Z,74.00
2022-10-07T23:19:21.379Z,74.10
2022-10-07T23:21:49.450Z,74.00
2022-10-07T23:24:17.515Z,74.00
2022-10-07T23:26:46.620Z,74.00
2022-10-07T23:29:14.818Z,74.00
2022-10-07T23:31:44.788Z,74.00
2022-10-07T23:34:14.792Z,74.00
2022-10-07T23:36:42.869Z,74.10
2022-10-07T23:39:11.269Z,73.90
2022-10-07T23:41:39.337Z,74.00
2022-10-07T23:44:07.375Z,74.00
2022-10-07T23:46:36.494Z,74.00
2022-10-07T23:49:05.166Z,74.00
2022-10-07T23:51:37.749Z,74.00
2022-10-07T23:54:05.938Z,73.80
2022-10-07T23:56:34.071Z,74.00
2022-10-07T23:59:02.778Z,73.90
